Time;durP1;ratioP1;P1;durP2;ratioP2;P2;SDS_P1;SDS_P2;PMS_P1;PMS_P2;Temp;Humidity;BMP_temperature;BMP_pressure;BME280_temperature;BME280_humidity;BME280_pressure;Samples;Min_cycle;Max_cycle;Signal;HPM_P1;HPM_P2
2022/08/11 00:02:27;;;;;;;16.03;5.87;;;16.50;68.60;;;;;;4996459;28;20901;-48
2022/08/11 00:04:55;;;;;;;12.37;9.07;;;16.50;68.80;;;;;;4990389;28;20896;-48
2022/08/11 00:07:24;;;;;;;9.90;6.53;;;16.40;68.90;;;;;;5009095;28;20634;-48
2022/08/11 00:09:52;;;;;;;11.43;9.13;;;16.30;68.90;;;;;;4996149;28;20618;-49
2022/08/11 00:12:20;;;;;;;7.73;6.93;;;16.30;68.50;;;;;;5005747;28;20492;-48
2022/08/11 00:14:56;;;;;;;10.43;8.90;;;16.20;68.90;;;;;;4996598;28;20489;-49
2022/08/11 00:17:27;;;;;;;6.50;5.90;;;16.20;69.00;;;;;;4997843;28;20550;-48
2022/08/11 00:20:02;;;;;;;14.67;8.57;;;16.20;68.90;;;;;;4994708;28;20496;-48
2022/08/11 00:22:30;;;;;;;9.07;7.20;;;16.10;69.30;;;;;;4999486;28;21494;-48
2022/08/11 00:24:57;;;;;;;10.37;9.13;;;16.00;69.80;;;;;;4985878;28;20492;-48
2022/08/11 00:27:33;;;;;;;19.53;7.13;;;16.00;69.30;;;;;;5007327;28;20516;-48
2022/08/11 00:30:00;;;;;;;8.30;7.40;;;16.00;69.80;;;;;;4996360;28;20732;-48
2022/08/11 00:32:28;;;;;;;7.73;6.87;;;16.00;69.50;;;;;;4998711;28;20585;-48
2022/08/11 00:34:55;;;;;;;17.33;7.87;;;15.90;69.80;;;;;;5001129;28;20539;-48
2022/08/11 00:37:23;;;;;;;6.87;6.17;;;15.90;69.50;;;;;;5001557;28;20559;-48
2022/08/11 00:39:52;;;;;;;11.50;9.93;;;15.80;69.90;;;;;;4991199;28;20519;-49
2022/08/11 00:42:29;;;;;;;9.97;6.90;;;15.70;69.90;;;;;;4995658;28;20489;-48
2022/08/11 00:45:06;;;;;;;12.63;10.47;;;15.60;70.40;;;;;;4994401;28;20943;-48
2022/08/11 00:47:50;;;;;;;18.13;7.97;;;15.40;71.30;;;;;;4996522;28;20484;-48
2022/08/11 00:50:26;;;;;;;7.10;6.27;;;15.30;71.50;;;;;;5002980;28;20491;-52
2022/08/11 00:53:32;;;;;;;12.30;10.33;;;15.10;72.70;;;;;;4995878;28;20534;-48
2022/08/11 00:56:30;;;;;;;9.77;8.20;;;15.00;72.20;;;;;;4994099;28;20521;-48
2022/08/11 00:59:28;;;;;;;37.97;10.30;;;15.10;71.50;;;;;;4995048;28;21200;-48
2022/08/11 01:02:08;;;;;;;10.50;8.63;;;15.10;71.60;;;;;;5003313;28;20536;-48
2022/08/11 01:05:06;;;;;;;10.00;8.40;;;15.10;71.60;;;;;;4993568;28;21054;-47
2022/08/11 01:08:01;;;;;;;9.20;8.30;;;15.00;72.10;;;;;;5000954;28;20499;-48
2022/08/11 01:10:51;;;;;;;7.80;6.83;;;14.80;72.80;;;;;;4977483;28;25003;-48
2022/08/11 01:13:29;;;;;;;7.40;6.53;;;;;;;;;;4981985;28;21219;-48
2022/08/11 01:16:29;;;;;;;12.20;8.40;;;14.70;72.20;;;;;;4977002;28;20502;-48
2022/08/11 01:19:34;;;;;;;19.60;9.67;;;14.50;73.80;;;;;;4984868;28;20499;-48
2022/08/11 01:22:42;;;;;;;7.83;7.03;;;14.40;74.20;;;;;;5007468;28;21003;-48
2022/08/11 01:25:52;;;;;;;10.63;8.50;;;14.20;74.70;;;;;;5015413;28;20995;-48
2022/08/11 01:28:49;;;;;;;8.87;7.97;;;14.20;74.30;;;;;;4958105;28;20955;-48
2022/08/11 01:31:45;;;;;;;11.40;8.53;;;14.40;73.60;;;;;;5000713;28;21138;-48
2022/08/11 01:34:50;;;;;;;9.97;8.40;;;14.50;72.70;;;;;;4995080;28;20520;-48
2022/08/11 01:37:47;;;;;;;12.03;9.43;;;14.50;72.30;;;;;;4995216;28;21067;-48
2022/08/11 01:41:14;;;;;;;8.30;7.00;;;14.50;72.50;;;;;;4984469;28;20963;-48
2022/08/11 01:46:56;;;;;;;14.53;11.10;;;14.60;72.40;;;;;;5015597;28;20497;-48
2022/08/11 01:49:31;;;;;;;16.80;7.33;;;14.60;72.30;;;;;;5015648;28;21379;-48
2022/08/11 01:52:14;;;;;;;10.50;9.23;;;14.60;72.60;;;;;;5007487;28;20570;-47
2022/08/11 01:54:47;;;;;;;22.27;10.47;;;14.70;72.50;;;;;;4992406;28;21173;-48
2022/08/11 01:57:28;;;;;;;9.23;8.30;;;14.70;72.00;;;;;;5019167;28;21156;-48
2022/08/11 02:00:02;;;;;;;21.80;9.03;;;14.60;72.40;;;;;;5016473;28;20561;-48
2022/08/11 02:02:46;;;;;;;8.90;7.77;;;14.60;72.70;;;;;;5000378;28;20500;-47
2022/08/11 02:05:28;;;;;;;16.20;8.20;;;14.50;73.40;;;;;;5018868;28;21005;-47
2022/08/11 02:08:02;;;;;;;16.53;11.63;;;14.40;72.60;;;;;;5016894;28;20511;-47
2022/08/11 02:13:32;;;;;;;9.27;7.63;;;14.30;73.60;;;;;;5017297;28;21191;-47
2022/08/11 02:16:09;;;;;;;16.73;9.30;;;14.30;73.40;;;;;;5003255;28;21159;-47
2022/08/11 02:24:23;;;;;;;8.40;7.20;;;14.20;73.60;;;;;;5007654;28;20575;-47
2022/08/11 02:26:59;;;;;;;20.90;12.60;;;14.20;73.50;;;;;;5017297;28;20503;-47
2022/08/11 02:29:33;;;;;;;20.33;9.50;;;14.10;74.30;;;;;;5018213;28;20484;-47
2022/08/11 02:35:01;;;;;;;14.10;10.20;;;14.00;73.60;;;;;;5003233;28;20515;-47
2022/08/11 02:37:42;;;;;;;9.93;7.90;;;14.00;73.10;;;;;;4999454;28;21006;-47
2022/08/11 02:40:19;;;;;;;12.10;9.50;;;14.00;74.20;;;;;;5008289;28;21038;-47
2022/08/11 02:43:01;;;;;;;17.97;12.67;;;13.90;74.70;;;;;;4992177;28;20480;-48
2022/08/11 02:45:53;;;;;;;9.77;8.20;;;13.90;74.60;;;;;;4996546;28;20496;-47
2022/08/11 02:51:27;;;;;;;37.63;8.80;;;13.80;74.80;;;;;;4998220;28;20768;-47
2022/08/11 02:54:01;;;;;;;15.90;10.90;;;13.80;74.50;;;;;;5002334;28;20487;-47
2022/08/11 02:56:43;;;;;;;8.53;6.17;;;13.80;73.80;;;;;;5004776;28;20563;-46
2022/08/11 03:02:15;;;;;;;10.03;8.73;;;13.90;75.60;;;;;;5022935;28;20479;-47
2022/08/11 03:04:58;;;;;;;16.47;10.53;;;13.90;75.00;;;;;;4998332;28;20903;-47
2022/08/11 03:07:32;;;;;;;9.80;8.67;;;13.90;75.40;;;;;;5017766;28;20545;-47
2022/08/11 03:10:05;;;;;;;9.37;6.93;;;13.90;74.80;;;;;;5024080;28;25315;-47
2022/08/11 03:18:25;;;;;;;7.60;6.80;;;13.90;74.90;;;;;;5004828;28;20530;-47
2022/08/11 03:21:04;;;;;;;13.63;10.07;;;13.80;74.50;;;;;;5009577;28;20484;-46
2022/08/11 03:23:37;;;;;;;10.03;7.53;;;13.80;74.90;;;;;;5022455;28;20491;-47
2022/08/11 03:26:13;;;;;;;13.60;7.27;;;13.70;73.90;;;;;;5024624;28;20488;-46
2022/08/11 03:28:51;;;;;;;12.57;9.20;;;13.70;74.80;;;;;;5021137;28;20483;-46
2022/08/11 03:31:26;;;;;;;18.50;7.53;;;13.70;74.30;;;;;;5003353;28;20859;-47
2022/08/11 03:34:03;;;;;;;22.90;13.33;;;13.60;74.80;;;;;;5010081;28;20558;-47
2022/08/11 03:36:59;;;;;;;15.03;7.63;;;13.60;74.20;;;;;;5005904;28;20477;-47
2022/08/11 03:39:40;;;;;;;11.17;7.57;;;13.60;74.40;;;;;;5005500;28;20508;-47
2022/08/11 03:42:17;;;;;;;20.27;8.93;;;13.60;74.30;;;;;;5004947;28;20538;-47
2022/08/11 03:45:07;;;;;;;22.40;11.40;;;13.50;74.90;;;;;;4993826;28;21041;-48
2022/08/11 03:48:05;;;;;;;16.73;9.30;;;13.50;75.20;;;;;;5004359;28;20480;-47
2022/08/11 03:50:52;;;;;;;27.73;8.63;;;13.40;75.10;;;;;;4996479;28;20550;-47
2022/08/11 03:53:29;;;;;;;18.97;8.33;;;13.40;74.60;;;;;;5010833;28;20484;-47
2022/08/11 03:56:33;;;;;;;27.43;13.40;;;13.40;75.40;;;;;;5018495;28;20526;-47
2022/08/11 03:59:27;;;;;;;20.37;12.03;;;13.30;75.90;;;;;;5001339;28;20511;-47
2022/08/11 04:02:18;;;;;;;26.20;13.10;;;13.40;75.60;;;;;;5003876;28;20494;-46
2022/08/11 04:05:06;;;;;;;51.87;12.47;;;13.30;75.40;;;;;;4983557;28;20468;-46
2022/08/11 04:07:58;;;;;;;13.50;8.80;;;13.30;75.60;;;;;;5004443;28;20966;-46
2022/08/11 04:10:59;;;;;;;13.87;8.90;;;13.30;75.80;;;;;;5012298;28;20523;-46
2022/08/11 04:15:58;;;;;;;15.77;9.87;;;13.30;76.30;;;;;;4986898;28;20498;-46
2022/08/11 04:16:45;;;;;;;20.67;11.90;;;13.30;76.20;;;;;;5005141;28;20488;-47
2022/08/11 04:19:53;;;;;;;12.03;7.97;;;13.20;76.00;;;;;;5007529;28;20859;-46
2022/08/11 04:22:44;;;;;;;11.37;8.50;;;13.20;75.40;;;;;;4993670;28;20908;-46
2022/08/11 04:25:43;;;;;;;10.83;7.37;;;13.20;75.20;;;;;;5016397;28;21347;-46
2022/08/11 04:28:47;;;;;;;11.70;8.57;;;13.20;75.50;;;;;;5007069;28;20560;-46
2022/08/11 04:31:33;;;;;;;8.73;7.07;;;13.20;76.60;;;;;;5027837;28;20484;-46
2022/08/11 04:34:13;;;;;;;11.10;8.20;;;13.10;75.90;;;;;;5016196;28;20494;-45
2022/08/11 04:40:45;;;;;;;11.47;8.50;;;13.10;76.20;;;;;;4950836;28;20496;-46
2022/08/11 04:44:04;;;;;;;11.10;8.27;;;13.10;76.40;;;;;;5021577;28;20513;-46
2022/08/11 05:01:39;;;;;;;11.70;8.63;;;13.00;76.20;;;;;;5000405;28;20496;-46
2022/08/11 05:03:00;;;;;;;14.20;7.87;;;13.20;77.60;;;;;;4984113;28;20475;-46
2022/08/11 05:05:48;;;;;;;8.30;7.00;;;13.00;77.70;;;;;;4971010;28;20799;-47
2022/08/11 05:09:07;;;;;;;9.90;8.13;;;13.10;77.50;;;;;;5006077;28;21294;-47
2022/08/11 05:12:02;;;;;;;9.20;8.17;;;13.10;77.60;;;;;;5008782;28;20558;-47
2022/08/11 05:34:51;;;;;;;14.33;8.90;;;13.80;79.30;;;;;;4962859;28;20974;-46
2022/08/11 05:37:22;;;;;;;18.90;9.30;;;14.00;80.50;;;;;;4979589;28;20510;-46
2022/08/11 05:56:43;;;;;;;9.80;8.23;;;15.50;79.80;;;;;;4997687;28;20554;-47
2022/08/11 05:59:16;;;;;;;21.20;9.23;;;15.70;80.00;;;;;;5006515;28;20480;-47
2022/08/11 06:01:44;;;;;;;11.17;8.90;;;15.80;78.70;;;;;;5000562;28;20482;-48
2022/08/11 06:04:17;;;;;;;11.23;8.90;;;16.00;78.50;;;;;;5003790;28;20492;-47
2022/08/11 06:06:53;;;;;;;19.10;9.77;;;16.20;77.90;;;;;;4997114;28;20862;-47
2022/08/11 06:09:33;;;;;;;10.53;9.53;;;16.40;77.50;;;;;;5025021;28;20490;-46
2022/08/11 06:12:03;;;;;;;15.90;7.87;;;16.60;77.10;;;;;;5020820;28;20503;-46
2022/08/11 06:14:32;;;;;;;10.97;8.77;;;16.80;77.00;;;;;;5005417;28;20535;-46
2022/08/11 06:17:02;;;;;;;12.77;8.07;;;17.10;76.80;;;;;;4995209;28;20493;-46
2022/08/11 06:19:38;;;;;;;9.20;8.30;;;17.30;76.70;;;;;;5007782;28;20481;-46
2022/08/11 06:22:08;;;;;;;10.87;9.50;;;17.40;76.30;;;;;;5013451;28;20518;-47
2022/08/11 06:24:36;;;;;;;15.83;7.97;;;17.80;75.80;;;;;;5009254;28;20492;-46
2022/08/11 06:27:05;;;;;;;9.93;8.67;;;18.00;76.60;;;;;;5012682;28;21114;-47
2022/08/11 06:29:39;;;;;;;22.03;9.30;;;18.30;75.50;;;;;;5008535;28;20481;-47
2022/08/11 06:32:06;;;;;;;15.90;9.07;;;18.50;74.30;;;;;;5008109;28;20725;-47
2022/08/11 06:34:46;;;;;;;13.23;8.70;;;18.70;73.70;;;;;;5006584;28;21179;-47
2022/08/11 06:37:22;;;;;;;20.00;8.43;;;19.00;73.70;;;;;;5025834;28;20811;-47
2022/08/11 06:39:58;;;;;;;17.83;12.87;;;19.30;73.30;;;;;;5003827;28;20546;-47
2022/08/11 06:42:38;;;;;;;22.67;7.63;;;19.70;72.00;;;;;;4993414;28;20479;-48
2022/08/11 06:45:16;;;;;;;15.50;7.77;;;20.10;71.70;;;;;;5010092;28;20588;-48
2022/08/11 06:47:46;;;;;;;7.87;7.07;;;20.50;69.40;;;;;;5025454;28;20483;-47
2022/08/11 06:53:05;;;;;;;8.03;7.20;;;21.10;67.80;;;;;;5005590;28;21099;-47
2022/08/11 07:01:09;;;;;;;16.60;7.80;;;22.10;65.90;;;;;;4964024;28;20501;-47
2022/08/11 07:03:42;;;;;;;8.07;7.27;;;22.40;65.30;;;;;;5014180;28;20640;-49
2022/08/11 07:06:23;;;;;;;8.37;7.07;;;22.70;64.50;;;;;;5013447;28;20549;-48
2022/08/11 07:29:31;;;;;;;7.67;5.77;;;25.40;58.20;;;;;;5004829;28;20518;-48
2022/08/11 07:32:05;;;;;;;7.53;5.20;;;25.50;57.70;;;;;;5002832;28;20485;-49
2022/08/11 07:34:37;;;;;;;6.03;5.43;;;25.60;57.50;;;;;;5006763;28;20497;-48
2022/08/11 07:37:11;;;;;;;5.87;5.13;;;25.80;57.50;;;;;;5020930;28;20495;-48
2022/08/11 07:39:39;;;;;;;7.77;5.40;;;26.00;57.40;;;;;;5004350;28;20491;-51
2022/08/11 07:42:09;;;;;;;9.90;6.20;;;26.20;56.60;;;;;;5004054;28;20507;-48
2022/08/11 07:48:10;;;;;;;10.73;5.87;;;26.40;56.60;;;;;;5005183;28;21092;-47
2022/08/11 07:52:58;;;;;;;8.63;7.73;;;27.10;55.50;;;;;;5000492;28;20496;-49
2022/08/11 07:55:26;;;;;;;6.73;5.97;;;27.30;55.00;;;;;;5003240;28;20571;-48
2022/08/11 08:20:02;;;;;;;9.43;4.87;;;28.80;52.30;;;;;;5002255;28;20487;-52
2022/08/11 08:22:30;;;;;;;5.33;4.60;;;29.00;51.70;;;;;;5003694;28;20531;-51
2022/08/11 08:24:57;;;;;;;6.83;5.53;;;29.10;51.60;;;;;;4999041;28;20558;-50
2022/08/11 08:27:25;;;;;;;11.33;4.87;;;29.40;52.00;;;;;;5003274;28;21135;-50
2022/08/11 08:32:52;;;;;;;5.67;5.17;;;29.80;50.90;;;;;;4966012;28;20484;-51
2022/08/11 08:35:20;;;;;;;5.50;4.00;;;30.00;51.00;;;;;;4948540;28;20506;-52
2022/08/11 08:37:50;;;;;;;5.90;4.20;;;30.10;49.50;;;;;;4979870;28;20612;-51
2022/08/11 08:40:18;;;;;;;5.03;4.53;;;30.20;49.90;;;;;;4994018;28;20583;-52
2022/08/11 08:42:50;;;;;;;7.03;6.33;;;30.30;50.00;;;;;;5019206;28;20489;-52
2022/08/11 08:45:18;;;;;;;11.83;4.27;;;30.40;49.40;;;;;;5002220;28;20507;-51
2022/08/11 08:47:48;;;;;;;7.40;6.70;;;30.40;49.00;;;;;;5003559;28;20489;-50
2022/08/11 08:50:18;;;;;;;4.90;4.40;;;30.40;48.70;;;;;;5002488;28;20501;-52
2022/08/11 08:52:52;;;;;;;7.83;7.07;;;30.60;49.40;;;;;;4998874;28;20485;-51
2022/08/11 08:55:19;;;;;;;9.70;4.00;;;30.70;49.20;;;;;;4999330;28;20481;-54
2022/08/11 08:57:49;;;;;;;13.53;4.70;;;30.00;46.30;;;;;;5003031;28;20523;-52
2022/08/11 09:00:17;;;;;;;6.57;3.93;;;30.10;48.30;;;;;;5001949;28;20544;-50
2022/08/11 09:02:45;;;;;;;6.53;5.77;;;30.10;48.00;;;;;;4997083;28;20968;-51
2022/08/11 09:05:12;;;;;;;12.47;4.03;;;29.70;47.00;;;;;;5002482;28;20524;-52
2022/08/11 09:07:40;;;;;;;9.80;4.80;;;29.90;49.10;;;;;;5008774;28;20496;-52
2022/08/11 09:10:10;;;;;;;5.87;5.00;;;30.00;48.10;;;;;;5003402;28;20488;-54
2022/08/11 09:12:40;;;;;;;5.43;4.93;;;30.00;48.10;;;;;;5000574;28;20485;-51
2022/08/11 09:15:10;;;;;;;7.27;5.77;;;30.20;48.50;;;;;;5002840;28;20527;-51
2022/08/11 09:17:41;;;;;;;4.87;4.40;;;30.60;47.80;;;;;;5001663;28;21240;-52
2022/08/11 09:20:11;;;;;;;5.63;5.07;;;30.70;47.00;;;;;;4996078;28;20550;-53
2022/08/11 09:28:28;;;;;;;4.03;3.33;;;31.00;47.70;;;;;;4996028;28;20858;-53
2022/08/11 09:30:56;;;;;;;4.13;3.43;;;31.10;47.40;;;;;;5001808;28;20496;-53
2022/08/11 09:33:24;;;;;;;23.23;4.43;;;31.30;46.20;;;;;;5002750;28;20481;-54
2022/08/11 09:35:52;;;;;;;11.70;5.83;;;31.30;45.30;;;;;;5002234;28;20539;-52
2022/08/11 09:41:09;;;;;;;4.13;3.83;;;31.50;45.70;;;;;;5000140;28;20544;-53
2022/08/11 09:46:27;;;;;;;5.10;3.27;;;31.50;45.70;;;;;;5013309;28;20487;-56
2022/08/11 09:48:57;;;;;;;5.40;3.57;;;31.10;44.50;;;;;;5020949;28;20496;-53
2022/08/11 09:51:29;;;;;;;12.67;4.10;;;31.10;44.90;;;;;;5019298;28;20533;-53
2022/08/11 09:53:59;;;;;;;6.33;4.03;;;31.00;44.30;;;;;;5036264;28;21145;-53
2022/08/11 09:59:13;;;;;;;5.50;3.87;;;31.20;44.30;;;;;;5001152;28;20954;-57
2022/08/11 10:01:44;;;;;;;6.40;3.93;;;31.30;43.70;;;;;;4998997;28;20907;-55
2022/08/11 10:04:17;;;;;;;4.90;4.40;;;31.50;44.30;;;;;;5021706;28;20484;-53
2022/08/11 10:07:00;;;;;;;11.23;3.83;;;31.50;44.10;;;;;;5000415;28;20485;-54
2022/08/11 10:09:29;;;;;;;4.07;3.70;;;31.50;43.60;;;;;;5000106;28;20476;-54
2022/08/11 10:11:59;;;;;;;3.50;3.20;;;31.50;43.80;;;;;;5002607;28;20639;-54
2022/08/11 10:17:14;;;;;;;6.50;3.40;;;31.70;43.00;;;;;;5005357;28;20903;-57
2022/08/11 10:19:45;;;;;;;10.77;3.90;;;31.80;43.60;;;;;;5003806;28;20496;-53
2022/08/11 10:27:45;;;;;;;3.40;2.80;;;31.70;43.10;;;;;;5003609;28;20839;-53
2022/08/11 10:35:44;;;;;;;3.97;3.57;;;31.50;44.20;;;;;;5004700;28;20503;-53
2022/08/11 10:38:14;;;;;;;12.50;4.07;;;31.50;43.30;;;;;;5002884;28;20496;-55
2022/08/11 10:40:45;;;;;;;14.00;3.30;;;31.60;43.10;;;;;;5002981;28;20653;-53
2022/08/11 10:43:13;;;;;;;4.10;3.80;;;31.60;43.70;;;;;;5004284;28;21014;-53
2022/08/11 10:48:31;;;;;;;3.40;3.10;;;31.40;43.10;;;;;;4991405;28;20979;-55
2022/08/11 10:51:16;;;;;;;5.13;3.67;;;;;;;;;;5009851;28;20511;-57
2022/08/11 10:59:22;;;;;;;4.60;3.10;;;31.70;42.90;;;;;;5009117;28;21106;-55
2022/08/11 11:01:50;;;;;;;9.30;3.60;;;31.90;42.50;;;;;;5015919;28;20601;-59
2022/08/11 11:04:18;;;;;;;3.37;3.07;;;31.80;43.30;;;;;;5004929;28;20885;-54
2022/08/11 11:06:54;;;;;;;6.50;4.53;;;31.70;42.40;;;;;;5006782;28;20488;-54
2022/08/11 11:09:28;;;;;;;7.30;3.63;;;31.80;43.40;;;;;;5006219;28;20582;-56
2022/08/11 11:18:00;;;;;;;4.30;3.90;;;32.00;45.20;;;;;;4984706;28;20494;-59
2022/08/11 11:20:30;;;;;;;11.73;3.40;;;32.10;43.80;;;;;;5002794;28;20667;-56
2022/08/11 11:23:03;;;;;;;4.20;3.80;;;32.00;44.20;;;;;;4999403;28;20545;-54
2022/08/11 11:25:41;;;;;;;2.10;1.67;;;32.00;43.10;;;;;;4991293;28;20630;-56
2022/08/11 11:28:23;;;;;;;7.10;3.70;;;31.90;43.70;;;;;;4994291;28;20538;-55
2022/08/11 11:31:04;;;;;;;4.33;3.77;;;32.10;44.90;;;;;;4999712;28;20463;-55
2022/08/11 11:33:49;;;;;;;3.80;3.00;;;32.20;44.10;;;;;;4983001;28;20631;-54
2022/08/11 11:36:21;;;;;;;4.67;3.83;;;32.50;44.50;;;;;;4990888;28;20508;-59
2022/08/11 11:38:48;;;;;;;3.53;3.23;;;32.30;44.10;;;;;;4992611;28;20495;-54
2022/08/11 11:41:24;;;;;;;3.63;2.73;;;32.40;43.10;;;;;;4990960;28;20488;-57
2022/08/11 11:43:52;;;;;;;3.37;3.07;;;32.40;43.20;;;;;;4994291;28;20500;-54
2022/08/11 11:46:20;;;;;;;3.50;3.20;;;32.40;42.90;;;;;;4986851;28;21230;-54
2022/08/11 11:48:47;;;;;;;2.47;2.27;;;32.60;42.80;;;;;;4990854;28;20434;-54
2022/08/11 11:51:15;;;;;;;4.33;3.13;;;32.80;43.50;;;;;;4985651;28;20982;-55
2022/08/11 11:53:43;;;;;;;5.60;3.00;;;32.90;43.60;;;;;;4990159;28;21075;-54
2022/08/11 11:56:11;;;;;;;3.50;3.20;;;33.10;43.00;;;;;;4991349;28;20488;-55
2022/08/11 12:01:27;;;;;;;3.47;3.17;;;33.10;42.40;;;;;;4979693;28;20459;-55
2022/08/11 12:03:55;;;;;;;3.93;3.63;;;33.00;42.70;;;;;;4994720;28;20949;-55
2022/08/11 12:06:24;;;;;;;4.23;3.87;;;32.80;42.00;;;;;;4990328;28;20925;-55
2022/08/11 12:08:53;;;;;;;16.30;3.60;;;32.80;42.80;;;;;;4987157;28;20476;-54
2022/08/11 12:14:09;;;;;;;9.70;3.80;;;32.40;42.50;;;;;;4977987;28;20536;-54
2022/08/11 12:16:39;;;;;;;4.67;3.33;;;32.40;42.00;;;;;;4989062;28;20582;-54
2022/08/11 12:19:10;;;;;;;5.30;4.80;;;32.40;42.70;;;;;;4990080;28;20977;-59
2022/08/11 12:27:19;;;;;;;3.10;2.90;;;32.60;42.00;;;;;;4988866;28;20500;-54
2022/08/11 12:27:22;;;;;;;4.17;2.97;;;32.90;41.70;;;;;;4967373;28;20534;-56
2022/08/11 12:29:52;;;;;;;3.50;3.20;;;32.50;40.60;;;;;;4971747;28;20500;-57
2022/08/11 12:32:23;;;;;;;3.50;3.20;;;32.20;41.20;;;;;;4965542;28;21159;-59
2022/08/11 12:34:50;;;;;;;7.50;4.77;;;31.80;41.10;;;;;;4985082;28;20516;-54
2022/08/11 12:37:22;;;;;;;8.60;3.23;;;32.20;41.80;;;;;;5010898;28;20711;-55
2022/08/11 12:45:30;;;;;;;3.97;2.70;;;;;;;;;;4989177;28;20499;-53
2022/08/11 12:53:45;;;;;;;4.40;3.40;;;32.40;41.20;;;;;;4998133;28;21249;-55
2022/08/11 13:07:15;;;;;;;4.63;3.30;;;33.10;40.90;;;;;;4985495;28;20609;-56
2022/08/11 13:09:44;;;;;;;5.20;3.10;;;33.30;40.10;;;;;;4990749;28;20829;-53
2022/08/11 13:14:56;;;;;;;4.57;4.10;;;33.30;39.80;;;;;;4987073;28;20576;-54
2022/08/11 13:17:23;;;;;;;3.43;2.73;;;33.50;40.80;;;;;;4987950;28;20539;-53
2022/08/11 13:19:52;;;;;;;3.03;2.73;;;33.60;39.50;;;;;;5004749;28;20462;-55
2022/08/11 13:22:21;;;;;;;3.73;2.67;;;33.60;39.00;;;;;;5023445;28;20694;-55
2022/08/11 13:24:49;;;;;;;10.60;3.47;;;33.70;39.80;;;;;;5010936;28;20462;-60
2022/08/11 13:27:19;;;;;;;3.70;3.17;;;33.70;39.10;;;;;;5010013;28;20480;-54
2022/08/11 13:29:47;;;;;;;9.30;2.90;;;33.70;39.60;;;;;;4996180;28;20616;-55
2022/08/11 13:32:15;;;;;;;3.63;2.70;;;33.90;39.90;;;;;;4987308;28;20551;-54
2022/08/11 13:34:43;;;;;;;2.67;2.47;;;34.00;38.70;;;;;;4998628;28;20950;-58
2022/08/11 13:37:24;;;;;;;11.70;3.10;;;34.20;39.00;;;;;;4995706;28;20501;-54
2022/08/11 13:39:51;;;;;;;3.63;3.30;;;34.20;39.30;;;;;;5006941;28;20569;-54
2022/08/11 13:42:20;;;;;;;10.33;3.37;;;34.00;38.80;;;;;;4997922;28;20494;-54
2022/08/11 13:44:48;;;;;;;3.73;2.90;;;34.00;39.40;;;;;;4996811;28;20543;-57
2022/08/11 13:47:16;;;;;;;2.63;2.20;;;34.10;39.10;;;;;;4996064;28;20493;-55
2022/08/11 13:49:44;;;;;;;12.03;3.30;;;35.20;39.80;;;;;;4996878;28;20492;-59
2022/08/11 13:52:13;;;;;;;11.23;3.30;;;34.10;40.10;;;;;;4997744;28;20846;-56
2022/08/11 13:54:43;;;;;;;3.77;3.10;;;34.10;40.30;;;;;;4995423;28;21126;-54
2022/08/11 13:57:13;;;;;;;2.63;2.43;;;34.10;38.70;;;;;;4984884;28;20635;-55
2022/08/11 13:59:41;;;;;;;3.60;2.30;;;34.10;39.50;;;;;;4980589;28;20493;-56
2022/08/11 14:02:14;;;;;;;3.70;3.00;;;33.80;38.40;;;;;;4983866;28;20797;-55
2022/08/11 14:04:45;;;;;;;5.20;3.17;;;33.90;38.60;;;;;;4995855;28;20459;-55
2022/08/11 14:07:16;;;;;;;24.47;4.00;;;34.00;39.10;;;;;;4994437;28;20492;-54
2022/08/11 14:09:46;;;;;;;10.90;2.90;;;34.00;38.80;;;;;;4993548;28;20525;-55
2022/08/11 14:15:06;;;;;;;4.20;3.07;;;34.20;38.80;;;;;;4987789;28;21014;-54
2022/08/11 14:17:34;;;;;;;5.03;3.50;;;34.30;38.90;;;;;;4996997;28;21273;-54
2022/08/11 14:20:04;;;;;;;4.30;2.97;;;34.30;38.50;;;;;;5006912;28;20491;-55
2022/08/11 14:22:31;;;;;;;3.30;3.00;;;34.40;39.00;;;;;;4997658;28;20467;-54
2022/08/11 14:25:00;;;;;;;2.93;2.40;;;34.40;39.00;;;;;;4993498;28;21057;-55
2022/08/11 14:27:29;;;;;;;32.50;4.63;;;34.10;39.80;;;;;;4987943;28;20471;-55
2022/08/11 14:29:57;;;;;;;3.60;3.30;;;34.00;38.40;;;;;;4997507;28;21305;-54
2022/08/11 14:32:25;;;;;;;2.70;2.30;;;33.70;38.10;;;;;;4993083;28;20494;-54
2022/08/11 14:34:53;;;;;;;8.20;3.33;;;33.60;38.50;;;;;;5002684;28;21135;-55
2022/08/11 14:37:22;;;;;;;3.03;2.73;;;33.70;38.50;;;;;;4996688;28;20534;-55
2022/08/11 14:39:52;;;;;;;3.60;3.30;;;33.90;38.90;;;;;;4995026;28;20495;-55
2022/08/11 14:48:00;;;;;;;3.57;2.60;;;34.10;38.50;;;;;;5007131;28;20569;-58
2022/08/11 14:50:28;;;;;;;11.73;3.07;;;34.00;37.70;;;;;;5012224;28;20830;-55
2022/08/11 14:52:57;;;;;;;7.80;2.70;;;34.10;37.90;;;;;;5020131;28;20623;-60
2022/08/11 14:58:15;;;;;;;3.70;2.70;;;34.10;38.30;;;;;;4995687;28;20920;-57
2022/08/11 15:00:43;;;;;;;2.70;2.50;;;34.10;37.80;;;;;;4991842;28;20471;-54
2022/08/11 15:03:11;;;;;;;10.80;3.20;;;34.30;38.10;;;;;;4995814;28;20474;-54
2022/08/11 15:05:42;;;;;;;3.40;2.90;;;34.20;37.60;;;;;;4986808;28;20454;-55
2022/08/11 15:08:10;;;;;;;3.37;3.07;;;34.20;37.50;;;;;;4984694;28;20674;-55
2022/08/11 15:10:37;;;;;;;12.03;3.20;;;34.20;37.40;;;;;;4991393;28;21083;-54
2022/08/11 15:13:04;;;;;;;5.70;3.23;;;34.10;38.00;;;;;;4988529;28;20465;-55
2022/08/11 15:18:17;;;;;;;3.33;3.03;;;34.10;37.00;;;;;;4974830;28;20788;-55
2022/08/11 15:26:16;;;;;;;2.97;2.53;;;33.90;37.40;;;;;;4997727;28;20865;-54
2022/08/11 15:37:30;;;;;;;3.00;2.27;;;33.70;37.50;;;;;;4997084;28;20554;-54
2022/08/11 15:45:51;;;;;;;2.70;2.50;;;33.60;36.70;;;;;;4997717;28;20594;-53
2022/08/11 15:48:28;;;;;;;11.93;3.23;;;33.80;37.60;;;;;;4997594;28;20554;-53
2022/08/11 15:50:58;;;;;;;3.70;2.37;;;33.80;37.00;;;;;;4998034;28;20494;-53
2022/08/11 15:53:31;;;;;;;3.07;2.77;;;33.80;36.60;;;;;;4992958;28;20568;-53
2022/08/11 15:56:00;;;;;;;3.57;2.37;;;33.90;37.00;;;;;;4998164;28;21170;-53
2022/08/11 16:04:12;;;;;;;10.57;2.80;;;33.80;36.90;;;;;;4998040;28;20588;-52
2022/08/11 16:06:44;;;;;;;6.37;2.30;;;33.70;36.00;;;;;;5007541;28;20460;-53
2022/08/11 16:09:14;;;;;;;4.53;2.47;;;33.50;36.10;;;;;;5011696;28;20594;-53
2022/08/11 16:11:42;;;;;;;3.60;2.63;;;33.10;36.30;;;;;;4997477;28;20468;-54
2022/08/11 16:16:58;;;;;;;4.40;3.00;;;33.30;38.00;;;;;;4992628;28;20570;-56
2022/08/11 16:19:33;;;;;;;3.40;2.90;;;33.10;37.20;;;;;;5002011;28;20992;-55
2022/08/11 16:22:01;;;;;;;12.73;3.43;;;33.10;37.30;;;;;;5009586;28;20837;-55
2022/08/11 16:24:30;;;;;;;3.13;2.83;;;33.10;37.60;;;;;;5013496;28;20498;-56
2022/08/11 16:26:57;;;;;;;3.57;2.97;;;;;;;;;;5009003;28;20506;-54
2022/08/11 16:29:26;;;;;;;10.73;3.13;;;33.30;37.80;;;;;;5005040;28;20995;-54
2022/08/11 16:40:14;;;;;;;3.40;3.10;;;33.10;36.80;;;;;;5016757;28;20494;-55
2022/08/11 16:48:12;;;;;;;8.17;2.90;;;33.00;37.40;;;;;;5020917;28;20514;-54
2022/08/11 16:50:42;;;;;;;6.63;3.20;;;33.00;37.00;;;;;;5025494;28;20495;-54
2022/08/11 16:53:09;;;;;;;2.93;2.67;;;33.00;37.20;;;;;;5016424;28;20492;-54
2022/08/11 16:55:37;;;;;;;10.83;2.90;;;32.70;36.30;;;;;;5017550;28;20492;-54
2022/08/11 17:00:50;;;;;;;8.50;2.90;;;32.90;37.00;;;;;;5018691;28;20458;-54
2022/08/11 17:14:33;;;;;;;11.73;3.50;;;32.70;37.80;;;;;;5000794;28;20454;-54
2022/08/11 17:17:02;;;;;;;3.47;2.90;;;32.70;37.60;;;;;;5004632;28;20488;-54
2022/08/11 17:19:33;;;;;;;3.93;3.60;;;32.50;37.30;;;;;;4999478;28;20888;-54
2022/08/11 17:24:52;;;;;;;23.23;4.20;;;32.40;37.70;;;;;;4995061;28;20603;-53
2022/08/11 17:27:20;;;;;;;3.00;2.70;;;32.20;37.00;;;;;;5000662;28;20906;-56
2022/08/11 17:29:51;;;;;;;3.50;3.20;;;32.30;38.20;;;;;;5007836;28;21309;-54
2022/08/11 17:37:58;;;;;;;5.50;2.73;;;31.90;37.40;;;;;;5001525;28;20561;-54
2022/08/11 17:40:26;;;;;;;6.23;3.00;;;31.90;37.40;;;;;;5013384;28;20520;-54
2022/08/11 17:48:26;;;;;;;2.63;2.20;;;31.70;38.10;;;;;;4990208;28;21027;-53
2022/08/11 17:50:54;;;;;;;4.27;3.03;;;31.60;38.10;;;;;;4994772;28;20496;-53
2022/08/11 18:01:41;;;;;;;31.03;3.83;;;31.60;39.10;;;;;;5001777;28;20507;-55
2022/08/11 18:04:09;;;;;;;5.70;3.10;;;31.60;38.90;;;;;;4990794;28;21273;-54
2022/08/11 18:06:39;;;;;;;3.40;3.10;;;31.60;39.00;;;;;;4987879;28;20826;-54
